Terminal Aerodrome Forecast
Issued by NWS Mt. Holly, NJ

Current Version | Previous Version | Text Only | Print | Product List | Glossary On
Versions: 1 2 3 4 5 6 7 8 9 10 11 12 13 14 15 16 17 18 19 20 21 22 23 24 25 26 27 28 29 30 31
000
FTAK31 PANC 012333
TAFABE
TAF
PABE 012333Z 0200/0224 22020G28KT 5SM -RA BR SCT008 BKN012 OVC015
      TEMPO 0200/0204 3SM -RA BR BKN008 OVC012
     FM020400 22020G30KT P6SM VCFG FEW008 BKN012 OVC020
     FM020800 22016G26KT 5SM BR OVC008
     FM021300 26008KT 3SM BR OVC005
     FM022000 24007KT P6SM SCT005 BKN012 OVC025=

USA.gov is the U.S. government's official web portal to all federal, state and local government web resources and services.